Time;durP1;ratioP1;P1;durP2;ratioP2;P2;SDS_P1;SDS_P2;PMS_P1;PMS_P2;Temp;Humidity;BMP_temperature;BMP_pressure;BME280_temperature;BME280_humidity;BME280_pressure;Samples;Min_cycle;Max_cycle;Signal;HPM_P1;HPM_P2
2022/07/19 00:00:37;;;;;;;1.60;1.60;;;;;;;;;;5048316;28;20204;-61
2022/07/19 00:03:03;;;;;;;1.40;1.40;;;;;;;;;;5043202;28;20217;-61
2022/07/19 00:05:29;;;;;;;1.77;1.70;;;;;;;;;;5043753;28;21197;-61
2022/07/19 00:07:55;;;;;;;1.50;1.50;;;;;;;;;;5049689;28;20395;-61
2022/07/19 00:10:21;;;;;;;1.67;1.67;;;;;;;;;;5045867;28;20301;-62
2022/07/19 00:12:47;;;;;;;1.40;1.40;;;;;;;;;;5043442;28;20247;-61
2022/07/19 00:15:14;;;;;;;1.40;1.40;;;;;;;;;;5041164;28;20212;-61
2022/07/19 00:17:40;;;;;;;1.20;1.20;;;;;;;;;;5046951;28;20848;-61
2022/07/19 00:20:07;;;;;;;1.30;1.30;;;;;;;;;;5043296;28;20335;-61
2022/07/19 00:22:33;;;;;;;1.20;1.20;;;;;;;;;;5048507;28;20277;-61
2022/07/19 00:24:59;;;;;;;1.50;1.50;;;;;;;;;;5051442;28;20238;-61
2022/07/19 00:27:25;;;;;;;1.70;1.60;;;;;;;;;;5047718;28;20265;-61
2022/07/19 00:29:51;;;;;;;1.60;1.60;;;;;;;;;;5045328;28;20219;-62
2022/07/19 00:32:17;;;;;;;1.50;1.50;;;;;;;;;;5052022;28;20234;-61
2022/07/19 00:34:42;;;;;;;1.80;1.70;;;;;;;;;;5047501;28;20216;-61
2022/07/19 00:37:08;;;;;;;1.73;1.70;;;;;;;;;;5043000;28;20219;-62
2022/07/19 00:39:34;;;;;;;1.60;1.60;;;;;;;;;;5045819;28;20218;-61
2022/07/19 00:42:00;;;;;;;1.63;1.63;;;;;;;;;;5044998;28;20230;-61
2022/07/19 00:44:26;;;;;;;1.80;1.70;;;;;;;;;;5050020;28;20230;-61
2022/07/19 00:46:52;;;;;;;1.50;1.50;;;;;;;;;;5041959;28;20235;-61
2022/07/19 00:49:18;;;;;;;1.90;1.80;;;;;;;;;;5042508;28;20219;-61
2022/07/19 00:51:44;;;;;;;1.53;1.53;;;;;;;;;;5041612;28;21769;-61
2022/07/19 00:54:11;;;;;;;1.80;1.70;;;;;;;;;;5045612;28;20227;-61
2022/07/19 00:56:37;;;;;;;1.73;1.70;;;;;;;;;;5042770;28;20228;-61
2022/07/19 00:59:04;;;;;;;1.53;1.53;;;;;;;;;;5043687;28;20226;-61
2022/07/19 01:01:30;;;;;;;1.50;1.50;;;;;;;;;;5045484;28;20719;-61
2022/07/19 01:03:56;;;;;;;1.90;1.80;;;;;;;;;;5046787;28;20231;-60
2022/07/19 01:06:22;;;;;;;1.60;1.60;;;;;;;;;;5045590;28;20765;-61
2022/07/19 01:08:48;;;;;;;1.90;1.80;;;;;;;;;;5047343;28;20226;-61
2022/07/19 01:11:14;;;;;;;1.93;1.83;;;;;;;;;;5041273;28;20224;-60
2022/07/19 01:13:40;;;;;;;1.60;1.60;;;;;;;;;;5036828;28;20219;-61
2022/07/19 01:16:06;;;;;;;1.90;1.80;;;;;;;;;;5043697;28;20316;-61
2022/07/19 01:18:32;;;;;;;1.77;1.70;;;;;;;;;;5053703;28;20235;-62
2022/07/19 01:20:58;;;;;;;1.60;1.60;;;;;;;;;;5051498;28;20215;-62
2022/07/19 01:23:24;;;;;;;1.80;1.70;;;;;;;;;;5045697;28;20235;-61
2022/07/19 01:25:50;;;;;;;1.90;1.80;;;;;;;;;;5038517;28;20240;-61
2022/07/19 01:28:16;;;;;;;1.77;1.70;;;;;;;;;;5042806;28;20219;-61
2022/07/19 01:30:42;;;;;;;1.90;1.80;;;;;;;;;;5044350;28;20313;-61
2022/07/19 01:33:08;;;;;;;1.80;1.70;;;;;;;;;;5044333;28;20699;-61
2022/07/19 01:35:33;;;;;;;2.13;2.03;;;;;;;;;;5043120;28;20298;-61
2022/07/19 01:37:59;;;;;;;1.60;1.60;;;;;;;;;;5037712;28;20298;-62
2022/07/19 01:40:25;;;;;;;2.07;1.97;;;;;;;;;;5049312;28;20649;-61
2022/07/19 01:42:51;;;;;;;1.53;1.53;;;;;;;;;;5042687;28;20253;-61
2022/07/19 01:45:18;;;;;;;1.97;1.87;;;;;;;;;;5050066;28;20378;-61
2022/07/19 01:47:43;;;;;;;1.87;1.77;;;;;;;;;;5045505;28;20703;-61
2022/07/19 01:50:10;;;;;;;2.03;1.93;;;;;;;;;;5041946;28;20209;-61
2022/07/19 01:52:36;;;;;;;1.67;1.67;;;;;;;;;;5041727;28;21210;-61
2022/07/19 01:55:02;;;;;;;1.90;1.80;;;;;;;;;;5043516;28;20219;-61
2022/07/19 01:57:29;;;;;;;1.53;1.53;;;;;;;;;;5049635;28;20230;-61
2022/07/19 01:59:55;;;;;;;1.50;1.50;;;;;;;;;;5043661;28;20597;-61
2022/07/19 02:02:21;;;;;;;1.43;1.43;;;;;;;;;;5049170;28;20230;-61
2022/07/19 02:04:47;;;;;;;2.00;1.90;;;;;;;;;;5049307;28;20234;-61
2022/07/19 02:07:13;;;;;;;1.87;1.77;;;;;;;;;;5044466;28;20238;-61
2022/07/19 02:09:39;;;;;;;1.90;1.80;;;;;;;;;;5049808;28;20219;-61
2022/07/19 02:12:05;;;;;;;1.60;1.60;;;;;;;;;;5049718;28;20195;-61
2022/07/19 02:14:31;;;;;;;1.90;1.80;;;;;;;;;;5053485;28;20329;-61
2022/07/19 02:16:57;;;;;;;1.83;1.73;;;;;;;;;;5049395;28;20577;-62
2022/07/19 02:19:23;;;;;;;1.60;1.60;;;;;;;;;;5048145;28;20228;-61
2022/07/19 02:21:49;;;;;;;1.80;1.70;;;;;;;;;;5047002;28;20896;-61
2022/07/19 02:24:15;;;;;;;1.67;1.67;;;;;;;;;;5040453;28;20230;-61
2022/07/19 02:26:41;;;;;;;1.73;1.70;;;;;;;;;;5051681;28;20335;-61
2022/07/19 02:29:07;;;;;;;1.60;1.60;;;;;;;;;;5045367;28;20223;-61
2022/07/19 02:31:33;;;;;;;1.90;1.80;;;;;;;;;;5049904;28;20649;-61
2022/07/19 02:33:59;;;;;;;1.50;1.50;;;;;;;;;;5051281;28;20258;-61
2022/07/19 02:36:25;;;;;;;1.60;1.60;;;;;;;;;;5043635;28;20227;-61
2022/07/19 02:38:51;;;;;;;1.93;1.83;;;;;;;;;;5036126;28;20234;-61
2022/07/19 02:41:17;;;;;;;1.60;1.60;;;;;;;;;;5043389;28;20624;-61
2022/07/19 02:43:43;;;;;;;1.90;1.80;;;;;;;;;;5049819;28;20199;-61
2022/07/19 02:46:09;;;;;;;1.80;1.70;;;;;;;;;;5052625;28;20306;-61
2022/07/19 02:48:35;;;;;;;1.73;1.70;;;;;;;;;;5045104;28;20681;-61
2022/07/19 02:51:01;;;;;;;1.53;1.53;;;;;;;;;;5051201;28;20784;-61
2022/07/19 02:53:27;;;;;;;1.50;1.50;;;;;;;;;;5041287;28;20643;-61
2022/07/19 02:55:53;;;;;;;1.70;1.70;;;;;;;;;;5048303;28;20218;-62
2022/07/19 02:58:19;;;;;;;1.90;1.80;;;;;;;;;;5049399;28;20288;-62
2022/07/19 03:00:45;;;;;;;1.90;1.80;;;;;;;;;;5051077;28;20192;-61
2022/07/19 03:05:56;;;;;;;1.87;1.77;;;;;;;;;;5049295;28;20600;-61
2022/07/19 03:08:22;;;;;;;1.87;1.77;;;;;;;;;;5046398;28;20255;-62
2022/07/19 03:10:48;;;;;;;2.00;1.90;;;;;;;;;;5048331;28;20760;-61
2022/07/19 03:13:14;;;;;;;2.20;2.10;;;;;;;;;;5048760;28;20219;-61
2022/07/19 03:15:40;;;;;;;1.90;1.80;;;;;;;;;;5048131;28;20216;-62
2022/07/19 03:18:06;;;;;;;1.80;1.70;;;;;;;;;;5049696;28;20246;-61
2022/07/19 03:20:32;;;;;;;2.00;1.90;;;;;;;;;;5051487;28;20677;-61
2022/07/19 03:22:58;;;;;;;1.90;1.80;;;;;;;;;;5033483;28;20743;-61
2022/07/19 03:25:24;;;;;;;1.70;1.70;;;;;;;;;;5047245;28;20267;-61
2022/07/19 03:27:50;;;;;;;1.70;1.70;;;;;;;;;;5049114;28;20220;-61
2022/07/19 03:30:16;;;;;;;1.57;1.57;;;;;;;;;;5044042;28;20228;-61
2022/07/19 03:32:42;;;;;;;1.70;1.70;;;;;;;;;;5047826;28;20707;-61
2022/07/19 03:35:08;;;;;;;1.60;1.60;;;;;;;;;;5045367;28;20220;-61
2022/07/19 03:37:34;;;;;;;1.60;1.60;;;;;;;;;;5048228;28;20262;-61
2022/07/19 03:40:00;;;;;;;1.60;1.60;;;;;;;;;;5043240;28;20725;-61
2022/07/19 03:42:26;;;;;;;1.67;1.67;;;;;;;;;;5045167;28;20212;-61
2022/07/19 03:44:52;;;;;;;1.60;1.60;;;;;;;;;;5045499;28;20661;-61
2022/07/19 03:47:18;;;;;;;1.50;1.50;;;;;;;;;;5044647;28;20211;-61
2022/07/19 03:49:44;;;;;;;1.50;1.50;;;;;;;;;;5046664;28;20227;-62
2022/07/19 03:52:11;;;;;;;1.40;1.40;;;;;;;;;;5046555;28;20227;-61
2022/07/19 03:54:37;;;;;;;1.50;1.50;;;;;;;;;;5041696;28;20920;-61
2022/07/19 03:57:03;;;;;;;1.67;1.67;;;;;;;;;;5042573;28;20219;-61
2022/07/19 03:59:29;;;;;;;1.60;1.60;;;;;;;;;;5045409;28;20196;-61
2022/07/19 04:01:55;;;;;;;1.60;1.60;;;;;;;;;;5042124;28;20234;-61
2022/07/19 04:04:21;;;;;;;1.50;1.50;;;;;;;;;;5045895;28;20482;-61
2022/07/19 04:06:47;;;;;;;1.73;1.70;;;;;;;;;;5043187;28;20320;-61
2022/07/19 04:09:13;;;;;;;1.70;1.70;;;;;;;;;;5043298;28;21072;-61
2022/07/19 04:11:39;;;;;;;1.60;1.60;;;;;;;;;;5046923;28;20703;-61
2022/07/19 04:14:05;;;;;;;1.53;1.53;;;;;;;;;;5046216;28;21571;-61
2022/07/19 04:16:30;;;;;;;1.40;1.40;;;;;;;;;;5047864;28;20321;-61
2022/07/19 04:18:56;;;;;;;1.50;1.50;;;;;;;;;;5048025;28;20218;-61
2022/07/19 04:21:22;;;;;;;1.67;1.67;;;;;;;;;;5048271;28;20232;-61
2022/07/19 04:23:48;;;;;;;1.80;1.70;;;;;;;;;;5045211;28;20238;-61
2022/07/19 04:26:14;;;;;;;1.60;1.60;;;;;;;;;;5048051;28;20330;-62
2022/07/19 04:28:40;;;;;;;1.50;1.50;;;;;;;;;;5045797;28;20219;-61
2022/07/19 04:31:06;;;;;;;1.80;1.70;;;;;;;;;;5043324;28;20216;-60
2022/07/19 04:33:32;;;;;;;1.77;1.70;;;;;;;;;;5049191;28;20693;-61
2022/07/19 04:35:58;;;;;;;1.50;1.50;;;;;;;;;;5051514;28;20225;-61
2022/07/19 04:38:24;;;;;;;1.60;1.60;;;;;;;;;;5041119;28;20255;-61
2022/07/19 04:40:50;;;;;;;1.50;1.50;;;;;;;;;;5046793;28;20223;-61
2022/07/19 04:43:16;;;;;;;1.60;1.60;;;;;;;;;;5048193;28;20280;-61
2022/07/19 04:45:44;;;;;;;1.70;1.70;;;;;;;;;;5046390;28;20313;-61
2022/07/19 04:48:10;;;;;;;1.70;1.70;;;;;;;;;;5049751;28;20196;-61
2022/07/19 04:50:36;;;;;;;1.60;1.60;;;;;;;;;;5056283;28;20230;-61
2022/07/19 04:53:02;;;;;;;1.60;1.60;;;;;;;;;;5052734;28;20211;-71
2022/07/19 04:55:30;;;;;;;1.60;1.60;;;;;;;;;;5054118;28;20187;-71
2022/07/19 04:57:56;;;;;;;1.63;1.63;;;;;;;;;;5050091;28;20216;-68
2022/07/19 05:00:22;;;;;;;1.80;1.73;;;;;;;;;;5048285;28;20219;-72
2022/07/19 05:02:48;;;;;;;1.87;1.77;;;;;;;;;;5053294;28;20264;-72
2022/07/19 05:05:14;;;;;;;1.80;1.70;;;;;;;;;;5042192;28;20236;-71
2022/07/19 05:07:40;;;;;;;1.70;1.70;;;;;;;;;;5042452;28;20736;-72
2022/07/19 05:10:06;;;;;;;1.40;1.40;;;;;;;;;;5041926;28;21350;-72
2022/07/19 05:12:33;;;;;;;1.50;1.50;;;;;;;;;;5045671;28;20222;-72
2022/07/19 05:14:59;;;;;;;1.60;1.60;;;;;;;;;;5032825;28;20227;-72
2022/07/19 05:17:25;;;;;;;1.60;1.60;;;;;;;;;;5046681;28;20303;-72
2022/07/19 05:19:51;;;;;;;1.60;1.60;;;;;;;;;;5048479;28;20246;-72
2022/07/19 05:22:17;;;;;;;1.50;1.50;;;;;;;;;;5043826;28;21235;-73
2022/07/19 05:24:43;;;;;;;1.57;1.57;;;;;;;;;;5049100;28;20715;-73
2022/07/19 05:27:09;;;;;;;1.60;1.60;;;;;;;;;;5050455;28;20226;-73
2022/07/19 05:29:35;;;;;;;1.53;1.53;;;;;;;;;;5046123;28;20244;-73
2022/07/19 05:32:02;;;;;;;1.50;1.50;;;;;;;;;;5045416;28;20712;-72
2022/07/19 05:34:28;;;;;;;1.63;1.60;;;;;;;;;;5046559;28;20818;-72
2022/07/19 05:36:54;;;;;;;1.90;1.80;;;;;;;;;;5036965;28;20341;-72
2022/07/19 05:39:20;;;;;;;1.60;1.60;;;;;;;;;;5044065;28;20306;-72
2022/07/19 05:41:46;;;;;;;1.77;1.70;;;;;;;;;;5044935;28;20199;-72
2022/07/19 05:44:12;;;;;;;1.90;1.80;;;;;;;;;;5036936;28;20216;-72
2022/07/19 05:46:40;;;;;;;1.50;1.50;;;;;;;;;;5043406;28;20243;-72
2022/07/19 05:49:08;;;;;;;2.00;1.90;;;;;;;;;;5041292;28;20200;-70
2022/07/19 05:51:34;;;;;;;1.50;1.50;;;;;;;;;;5055065;28;20234;-70
2022/07/19 05:54:00;;;;;;;1.67;1.67;;;;;;;;;;5053225;28;20645;-70
2022/07/19 05:56:26;;;;;;;1.60;1.60;;;;;;;;;;5055016;28;20302;-70
2022/07/19 05:58:53;;;;;;;1.60;1.60;;;;;;;;;;5057329;28;20589;-69
2022/07/19 06:01:19;;;;;;;1.90;1.80;;;;;;;;;;5056946;28;20691;-70
2022/07/19 06:03:49;;;;;;;1.60;1.60;;;;;;;;;;5053868;28;20204;-69
2022/07/19 06:06:15;;;;;;;1.60;1.60;;;;;;;;;;5053931;28;20309;-69
2022/07/19 06:08:41;;;;;;;1.60;1.60;;;;;;;;;;5053975;28;20219;-69
2022/07/19 06:11:07;;;;;;;1.90;1.80;;;;;;;;;;5054136;28;20564;-69
2022/07/19 06:13:33;;;;;;;1.90;1.80;;;;;;;;;;5053350;28;20191;-69
2022/07/19 06:15:59;;;;;;;1.80;1.70;;;;;;;;;;5055027;28;20211;-69
2022/07/19 06:18:25;;;;;;;1.60;1.60;;;;;;;;;;5052048;28;20304;-69
2022/07/19 06:20:51;;;;;;;1.40;1.40;;;;;;;;;;5053611;28;20211;-69
2022/07/19 06:23:17;;;;;;;1.63;1.63;;;;;;;;;;5051181;28;20235;-69
2022/07/19 06:25:43;;;;;;;1.40;1.40;;;;;;;;;;5055435;28;20243;-69
2022/07/19 06:28:09;;;;;;;1.50;1.50;;;;;;;;;;5053194;28;20192;-69
2022/07/19 06:30:35;;;;;;;1.53;1.53;;;;;;;;;;5052758;28;20223;-69
2022/07/19 06:33:01;;;;;;;1.80;1.70;;;;;;;;;;5051962;28;20196;-69
2022/07/19 06:35:27;;;;;;;1.83;1.73;;;;;;;;;;5050368;28;20216;-70
2022/07/19 06:37:53;;;;;;;1.63;1.63;;;;;;;;;;5053455;28;20199;-69
2022/07/19 06:40:19;;;;;;;1.60;1.60;;;;;;;;;;5052005;28;20308;-69
2022/07/19 06:42:45;;;;;;;1.50;1.50;;;;;;;;;;5053684;28;20222;-69
2022/07/19 06:45:11;;;;;;;1.70;1.70;;;;;;;;;;5054638;28;20231;-69
2022/07/19 06:47:37;;;;;;;1.90;1.80;;;;;;;;;;5051776;28;20211;-69
2022/07/19 06:50:03;;;;;;;1.67;1.63;;;;;;;;;;5051888;28;20227;-69
2022/07/19 06:52:29;;;;;;;1.50;1.50;;;;;;;;;;5053223;28;20192;-70
2022/07/19 06:54:55;;;;;;;1.60;1.60;;;;;;;;;;5053408;28;20210;-69
2022/07/19 06:57:21;;;;;;;1.70;1.70;;;;;;;;;;5049720;28;20226;-70
2022/07/19 06:59:47;;;;;;;1.93;1.83;;;;;;;;;;5050343;28;20211;-69
2022/07/19 07:02:13;;;;;;;1.90;1.80;;;;;;;;;;5052667;28;20250;-70
2022/07/19 07:04:39;;;;;;;1.60;1.60;;;;;;;;;;5049134;28;20224;-69
2022/07/19 07:07:05;;;;;;;1.80;1.70;;;;;;;;;;5052111;28;20235;-69
2022/07/19 07:09:31;;;;;;;1.87;1.77;;;;;;;;;;5049157;28;20219;-69
2022/07/19 07:11:57;;;;;;;1.70;1.70;;;;;;;;;;5048210;28;20256;-69
2022/07/19 07:14:23;;;;;;;1.70;1.70;;;;;;;;;;5054006;28;20211;-69
2022/07/19 07:16:49;;;;;;;1.50;1.50;;;;;;;;;;5053140;28;20222;-69
2022/07/19 07:19:15;;;;;;;1.50;1.50;;;;;;;;;;5053282;28;20287;-69
2022/07/19 07:21:41;;;;;;;1.10;1.10;;;;;;;;;;5050766;28;20207;-69
2022/07/19 07:24:07;;;;;;;1.50;1.50;;;;;;;;;;5049105;28;20433;-69
2022/07/19 07:26:33;;;;;;;1.60;1.60;;;;;;;;;;5054319;28;20312;-69
2022/07/19 07:28:59;;;;;;;1.40;1.40;;;;;;;;;;5050191;28;20206;-69
2022/07/19 07:31:25;;;;;;;1.50;1.50;;;;;;;;;;5048380;28;21374;-69
2022/07/19 07:33:51;;;;;;;1.60;1.60;;;;;;;;;;5051257;28;20279;-69
2022/07/19 07:36:17;;;;;;;1.60;1.60;;;;;;;;;;5047988;28;20207;-69
2022/07/19 07:38:43;;;;;;;1.73;1.63;;;;;;;;;;5053015;28;20246;-69
2022/07/19 07:41:09;;;;;;;1.73;1.70;;;;;;;;;;5047311;28;20212;-69
2022/07/19 07:43:36;;;;;;;1.60;1.60;;;;;;;;;;5049638;28;20249;-69
2022/07/19 07:46:02;;;;;;;1.90;1.80;;;;;;;;;;5044737;28;20278;-69
2022/07/19 07:48:28;;;;;;;1.80;1.70;;;;;;;;;;5051215;28;21287;-69
2022/07/19 07:50:54;;;;;;;1.60;1.60;;;;;;;;;;5052744;28;20618;-69
2022/07/19 07:53:20;;;;;;;1.50;1.50;;;;;;;;;;5052873;28;20215;-69
2022/07/19 07:55:46;;;;;;;1.75;1.67;;;;;;;;;;5051141;28;20188;-69
2022/07/19 07:58:12;;;;;;;1.70;1.70;;;;;;;;;;5052681;28;20204;-69
2022/07/19 08:00:38;;;;;;;1.80;1.70;;;;;;;;;;5051637;28;20271;-70
2022/07/19 08:03:04;;;;;;;1.40;1.40;;;;;;;;;;5047214;28;20245;-69
2022/07/19 08:05:31;;;;;;;1.70;1.70;;;;;;;;;;5036936;28;20257;-69
2022/07/19 08:07:57;;;;;;;1.98;1.88;;;;;;;;;;5052181;28;20270;-70
2022/07/19 08:10:23;;;;;;;1.60;1.60;;;;;;;;;;5051347;28;20333;-70
2022/07/19 08:12:49;;;;;;;1.70;1.70;;;;;;;;;;5047851;28;20258;-69
2022/07/19 08:15:15;;;;;;;1.60;1.60;;;;;;;;;;5046704;28;21621;-69
2022/07/19 08:17:41;;;;;;;1.50;1.50;;;;;;;;;;5048054;28;20195;-69
2022/07/19 08:20:08;;;;;;;1.30;1.30;;;;;;;;;;5035817;28;20223;-69
2022/07/19 08:22:33;;;;;;;1.65;1.65;;;;;;;;;;5037791;28;20657;-69
2022/07/19 08:25:00;;;;;;;1.55;1.55;;;;;;;;;;5045271;28;20241;-68
2022/07/19 08:27:25;;;;;;;1.40;1.40;;;;;;;;;;5050162;28;20191;-68
2022/07/19 08:29:51;;;;;;;1.52;1.52;;;;;;;;;;5051827;28;20211;-69
2022/07/19 08:32:17;;;;;;;1.30;1.30;;;;;;;;;;5042460;28;20251;-69
2022/07/19 08:34:43;;;;;;;1.17;1.17;;;;;;;;;;5046170;28;20222;-69
2022/07/19 08:37:09;;;;;;;1.23;1.23;;;;;;;;;;5047997;28;20196;-69
2022/07/19 08:39:35;;;;;;;1.40;1.40;;;;;;;;;;5049551;28;20219;-68
2022/07/19 08:42:01;;;;;;;1.30;1.30;;;;;;;;;;5046203;28;20306;-68
2022/07/19 08:44:28;;;;;;;1.30;1.30;;;;;;;;;;5047998;28;20205;-68
2022/07/19 08:46:54;;;;;;;1.50;1.50;;;;;;;;;;5039199;28;20220;-68
2022/07/19 08:49:20;;;;;;;1.58;1.50;;;;;;;;;;5049936;28;22426;-69
2022/07/19 08:51:46;;;;;;;1.10;1.10;;;;;;;;;;5049278;28;20200;-69
2022/07/19 08:54:12;;;;;;;1.50;1.50;;;;;;;;;;5046958;28;20948;-69
2022/07/19 08:59:23;;;;;;;1.17;1.17;;;;;;;;;;5046404;28;20269;-69
2022/07/19 09:01:49;;;;;;;1.13;1.13;;;;;;;;;;5050556;28;20223;-68
2022/07/19 09:04:19;;;;;;;0.90;0.90;;;;;;;;;;5049710;28;20660;-69
2022/07/19 09:06:45;;;;;;;1.00;1.00;;;;;;;;;;5050143;28;20215;-69
2022/07/19 09:09:11;;;;;;;1.10;1.10;;;;;;;;;;5051842;28;20203;-68
2022/07/19 09:11:38;;;;;;;1.10;1.10;;;;;;;;;;5046788;28;20238;-68
2022/07/19 09:14:05;;;;;;;1.08;1.08;;;;;;;;;;5050856;28;20192;-69
2022/07/19 09:16:50;;;;;;;1.00;1.00;;;;;;;;;;5053162;28;20188;-68
2022/07/19 09:19:16;;;;;;;1.10;1.10;;;;;;;;;;5048719;28;21266;-69
2022/07/19 09:21:55;;;;;;;0.70;0.70;;;;;;;;;;5048877;28;20207;-68
2022/07/19 09:24:21;;;;;;;0.80;0.80;;;;;;;;;;5048082;28;20244;-68
2022/07/19 09:26:57;;;;;;;0.80;0.80;;;;;;;;;;5041917;28;20240;-69
2022/07/19 09:29:23;;;;;;;0.80;0.80;;;;;;;;;;5047805;28;20188;-67
2022/07/19 09:31:59;;;;;;;0.80;0.80;;;;;;;;;;5047161;28;20193;-70
2022/07/19 09:34:31;;;;;;;0.80;0.80;;;;;;;;;;5054090;28;20208;-68
2022/07/19 09:37:14;;;;;;;0.90;0.90;;;;;;;;;;5050354;28;20656;-68
2022/07/19 09:39:41;;;;;;;0.80;0.80;;;;;;;;;;5052179;28;20248;-68
2022/07/19 09:42:08;;;;;;;0.80;0.80;;;;;;;;;;5053793;28;20235;-68
2022/07/19 09:44:34;;;;;;;0.70;0.70;;;;;;;;;;5053367;28;20309;-68
2022/07/19 09:47:00;;;;;;;0.80;0.80;;;;;;;;;;5051334;28;20196;-67
2022/07/19 09:49:26;;;;;;;0.80;0.80;;;;;;;;;;5052299;28;20223;-69
2022/07/19 09:51:53;;;;;;;0.70;0.70;;;;;;;;;;5049125;28;20266;-67
2022/07/19 09:54:19;;;;;;;0.82;0.82;;;;;;;;;;5052311;28;20208;-67
2022/07/19 09:56:46;;;;;;;0.80;0.80;;;;;;;;;;5052417;28;20575;-67
2022/07/19 09:59:12;;;;;;;0.80;0.80;;;;;;;;;;5055736;28;20190;-67
2022/07/19 10:01:39;;;;;;;0.90;0.90;;;;;;;;;;5053341;28;20211;-67
2022/07/19 10:04:09;;;;;;;0.90;0.90;;;;;;;;;;5053226;28;20552;-67
2022/07/19 10:06:35;;;;;;;0.80;0.80;;;;;;;;;;5055767;28;20224;-67
2022/07/19 10:09:02;;;;;;;0.90;0.90;;;;;;;;;;5055758;28;20261;-67
2022/07/19 10:11:30;;;;;;;0.77;0.77;;;;;;;;;;5052765;28;20223;-67
2022/07/19 10:13:56;;;;;;;1.00;1.00;;;;;;;;;;5053955;28;20204;-67
2022/07/19 10:16:42;;;;;;;0.80;0.80;;;;;;;;;;5057318;28;20189;-67
2022/07/19 10:19:28;;;;;;;0.80;0.80;;;;;;;;;;5055380;28;20207;-67
2022/07/19 10:21:54;;;;;;;0.80;0.80;;;;;;;;;;5041835;28;22405;-66
2022/07/19 10:24:39;;;;;;;0.80;0.80;;;;;;;;;;5049886;28;20241;-67
2022/07/19 10:27:05;;;;;;;0.88;0.88;;;;;;;;;;5046525;28;26746;-67
2022/07/19 10:29:31;;;;;;;0.90;0.90;;;;;;;;;;5043417;28;20417;-67
2022/07/19 10:32:04;;;;;;;1.10;1.10;;;;;;;;;;5054106;28;20540;-67
2022/07/19 10:34:30;;;;;;;0.90;0.90;;;;;;;;;;5051929;28;20197;-67
2022/07/19 10:36:56;;;;;;;0.82;0.82;;;;;;;;;;5051473;28;20235;-67
2022/07/19 10:39:35;;;;;;;0.98;0.98;;;;;;;;;;5054598;28;20222;-67
2022/07/19 10:42:07;;;;;;;0.80;0.80;;;;;;;;;;5052165;28;20531;-68
2022/07/19 10:44:33;;;;;;;0.90;0.90;;;;;;;;;;5053541;28;20201;-66
2022/07/19 10:46:59;;;;;;;1.00;1.00;;;;;;;;;;5051667;28;20192;-67
2022/07/19 10:49:44;;;;;;;1.00;1.00;;;;;;;;;;5037309;28;20211;-69
2022/07/19 10:52:29;;;;;;;0.90;0.90;;;;;;;;;;5032370;28;20192;-70
2022/07/19 10:55:13;;;;;;;0.80;0.80;;;;;;;;;;5042656;28;20234;-70
2022/07/19 10:57:39;;;;;;;0.90;0.90;;;;;;;;;;5049366;28;20191;-69
2022/07/19 11:00:17;;;;;;;0.90;0.90;;;;;;;;;;5035709;28;20212;-70
2022/07/19 11:02:43;;;;;;;0.90;0.90;;;;;;;;;;5040623;28;20211;-72
2022/07/19 11:05:20;;;;;;;0.90;0.90;;;;;;;;;;5045959;28;20261;-73
2022/07/19 11:07:49;;;;;;;0.90;0.90;;;;;;;;;;5047389;28;20183;-73
2022/07/19 11:10:23;;;;;;;0.70;0.70;;;;;;;;;;5045791;28;20807;-72
2022/07/19 11:12:49;;;;;;;0.80;0.80;;;;;;;;;;5043488;28;20207;-72
2022/07/19 11:15:15;;;;;;;0.80;0.80;;;;;;;;;;5042753;28;20219;-73
2022/07/19 11:17:50;;;;;;;0.80;0.80;;;;;;;;;;5037841;28;20188;-71
2022/07/19 11:20:18;;;;;;;0.90;0.90;;;;;;;;;;5037252;28;20255;-71
2022/07/19 11:22:45;;;;;;;0.90;0.90;;;;;;;;;;5038082;28;20208;-71
2022/07/19 11:25:11;;;;;;;0.80;0.80;;;;;;;;;;5044705;28;20368;-71
2022/07/19 11:27:40;;;;;;;0.90;0.90;;;;;;;;;;5039113;28;20192;-71
2022/07/19 11:30:06;;;;;;;0.90;0.90;;;;;;;;;;5043229;28;20188;-71
2022/07/19 11:32:32;;;;;;;0.90;0.90;;;;;;;;;;5046720;28;20547;-71
2022/07/19 11:35:05;;;;;;;0.90;0.90;;;;;;;;;;5030685;28;20226;-71
2022/07/19 11:37:32;;;;;;;1.00;1.00;;;;;;;;;;5042908;28;20212;-71
2022/07/19 11:39:58;;;;;;;1.00;1.00;;;;;;;;;;5042959;28;20196;-71
2022/07/19 11:42:28;;;;;;;0.95;0.95;;;;;;;;;;5041188;28;20297;-70
2022/07/19 11:44:54;;;;;;;0.90;0.90;;;;;;;;;;5045557;28;20274;-71
2022/07/19 11:47:21;;;;;;;1.00;1.00;;;;;;;;;;5038147;28;20257;-71
2022/07/19 11:49:47;;;;;;;1.10;1.10;;;;;;;;;;5043754;28;20296;-71
2022/07/19 11:52:13;;;;;;;0.90;0.90;;;;;;;;;;5040297;28;20231;-71
2022/07/19 11:54:38;;;;;;;0.90;0.90;;;;;;;;;;5041979;28;20203;-70
2022/07/19 11:57:05;;;;;;;0.90;0.90;;;;;;;;;;5047920;28;20226;-70
2022/07/19 11:59:31;;;;;;;0.90;0.90;;;;;;;;;;5037321;28;20196;-70
2022/07/19 12:01:57;;;;;;;1.00;1.00;;;;;;;;;;5042307;28;20211;-70
2022/07/19 12:04:23;;;;;;;0.80;0.80;;;;;;;;;;5040766;28;20213;-71
2022/07/19 12:06:51;;;;;;;1.00;1.00;;;;;;;;;;5028957;28;20199;-71
2022/07/19 12:09:17;;;;;;;0.90;0.90;;;;;;;;;;5039054;28;20184;-71
2022/07/19 12:43:25;;;;;;;1.00;1.00;;;;;;;;;;5023734;28;20239;-72
2022/07/19 12:45:51;;;;;;;1.10;1.10;;;;;;;;;;5034595;28;20651;-72
2022/07/19 12:48:17;;;;;;;1.10;1.10;;;;;;;;;;5049836;28;20219;-72
2022/07/19 12:50:44;;;;;;;1.10;1.10;;;;;;;;;;5048588;28;21034;-72
2022/07/19 12:53:10;;;;;;;0.93;0.93;;;;;;;;;;5046545;28;20253;-73
2022/07/19 12:55:36;;;;;;;1.00;1.00;;;;;;;;;;5040686;28;20227;-72
2022/07/19 12:58:03;;;;;;;1.30;1.30;;;;;;;;;;5044882;28;20187;-72
2022/07/19 13:00:29;;;;;;;1.00;1.00;;;;;;;;;;5047972;28;20225;-72
2022/07/19 13:51:54;;;;;;;0.80;0.80;;;;;;;;;;4527961;28;20249;-68
2022/07/19 13:54:20;;;;;;;0.90;0.90;;;;;;;;;;5048337;28;20200;-67
2022/07/19 13:56:46;;;;;;;0.70;0.70;;;;;;;;;;5037255;28;20294;-66
2022/07/19 13:59:12;;;;;;;0.80;0.80;;;;;;;;;;5053056;28;20246;-65
2022/07/19 14:01:38;;;;;;;0.80;0.80;;;;;;;;;;5045344;28;20240;-65
2022/07/19 14:04:04;;;;;;;0.77;0.77;;;;;;;;;;5040385;28;20564;-65
2022/07/19 15:04:40;;;;;;;0.80;0.80;;;;;;;;;;3887596;28;20600;-66
2022/07/19 15:07:06;;;;;;;0.90;0.90;;;;;;;;;;5050408;28;20192;-66
2022/07/19 15:09:32;;;;;;;0.88;0.88;;;;;;;;;;5045822;28;21145;-67
2022/07/19 15:11:59;;;;;;;0.80;0.80;;;;;;;;;;5049917;28;20226;-66
2022/07/19 15:14:28;;;;;;;0.80;0.80;;;;;;;;;;5043548;28;20221;-66
2022/07/19 15:16:55;;;;;;;0.80;0.80;;;;;;;;;;5045954;28;20273;-66
2022/07/19 15:19:21;;;;;;;0.90;0.90;;;;;;;;;;5049980;28;20356;-67
2022/07/19 15:21:47;;;;;;;0.90;0.90;;;;;;;;;;5048140;28;20566;-67
2022/07/19 15:24:14;;;;;;;0.80;0.80;;;;;;;;;;5025807;28;20228;-66
2022/07/19 15:26:40;;;;;;;0.85;0.85;;;;;;;;;;5039763;28;20779;-65
2022/07/19 15:29:09;;;;;;;0.90;0.90;;;;;;;;;;5043279;28;20315;-65
2022/07/19 15:31:35;;;;;;;1.00;1.00;;;;;;;;;;5042490;28;20204;-67
2022/07/19 15:34:01;;;;;;;0.90;0.90;;;;;;;;;;5037441;28;20296;-66
2022/07/19 15:36:27;;;;;;;0.90;0.90;;;;;;;;;;5038721;28;20346;-65
2022/07/19 15:38:53;;;;;;;0.88;0.88;;;;;;;;;;5043468;28;20208;-64
2022/07/19 15:41:20;;;;;;;0.90;0.90;;;;;;;;;;5042613;28;20271;-64
2022/07/19 15:43:49;;;;;;;0.90;0.90;;;;;;;;;;5045698;28;20208;-64
2022/07/19 15:46:15;;;;;;;0.90;0.90;;;;;;;;;;5045881;28;20770;-65
2022/07/19 15:48:42;;;;;;;0.90;0.90;;;;;;;;;;5047878;28;20216;-66
2022/07/19 15:51:11;;;;;;;0.90;0.90;;;;;;;;;;5045203;28;20220;-66
2022/07/19 15:53:40;;;;;;;1.08;1.08;;;;;;;;;;5043518;28;20310;-65
2022/07/19 15:56:06;;;;;;;0.95;0.95;;;;;;;;;;5038523;28;20264;-66
2022/07/19 15:58:35;;;;;;;1.00;1.00;;;;;;;;;;5041229;28;20232;-67
2022/07/19 16:01:04;;;;;;;0.90;0.90;;;;;;;;;;5036308;28;20204;-67
2022/07/19 16:03:30;;;;;;;1.00;1.00;;;;;;;;;;5040716;28;20219;-66
2022/07/19 16:05:56;;;;;;;0.90;0.90;;;;;;;;;;5044398;28;20227;-65
2022/07/19 16:08:25;;;;;;;0.90;0.90;;;;;;;;;;5043418;28;20209;-65
2022/07/19 16:10:54;;;;;;;0.90;0.90;;;;;;;;;;5038950;28;20696;-64
2022/07/19 16:13:20;;;;;;;0.90;0.90;;;;;;;;;;5036270;28;20230;-67
2022/07/19 16:15:47;;;;;;;0.80;0.80;;;;;;;;;;5036472;28;20235;-65
2022/07/19 16:18:13;;;;;;;0.80;0.80;;;;;;;;;;5042152;28;21004;-67
2022/07/19 16:20:39;;;;;;;1.00;1.00;;;;;;;;;;5037378;28;20241;-66
2022/07/19 16:38:23;;;;;;;32.67;30.85;;;;;;;;;;5038783;28;20238;-65
2022/07/19 16:40:50;;;;;;;220.32;208.73;;;;;;;;;;5036175;28;20212;-65
2022/07/19 16:52:27;;;;;;;1.30;1.30;;;;;;;;;;5044733;28;20209;-66
2022/07/19 16:54:53;;;;;;;1.33;1.33;;;;;;;;;;5046822;28;20584;-67
2022/07/19 16:57:19;;;;;;;1.20;1.20;;;;;;;;;;5042351;28;20669;-66
2022/07/19 16:59:45;;;;;;;23.75;22.63;;;;;;;;;;5045016;28;20227;-66
2022/07/19 17:02:10;;;;;;;140.15;133.30;;;;;;;;;;5052204;28;20211;-65
2022/07/19 19:13:15;;;;;;;1.20;1.20;;;;;;;;;;4624872;28;20322;-66
2022/07/19 19:15:41;;;;;;;1.17;1.17;;;;;;;;;;5035726;28;20358;-66
2022/07/19 19:18:07;;;;;;;1.20;1.20;;;;;;;;;;5035976;28;20675;-66
2022/07/19 19:20:33;;;;;;;1.30;1.30;;;;;;;;;;5043692;28;20220;-64
2022/07/19 19:23:00;;;;;;;1.20;1.20;;;;;;;;;;5042313;28;20214;-66
2022/07/19 19:25:26;;;;;;;1.20;1.20;;;;;;;;;;5033098;28;20314;-66
2022/07/19 19:27:52;;;;;;;1.20;1.20;;;;;;;;;;5037198;28;20636;-65
2022/07/19 19:30:18;;;;;;;1.30;1.30;;;;;;;;;;5035807;28;20198;-66
2022/07/19 19:32:44;;;;;;;1.10;1.10;;;;;;;;;;5035544;28;20227;-66
2022/07/19 19:35:10;;;;;;;1.10;1.10;;;;;;;;;;5034178;28;20239;-65
2022/07/19 19:37:38;;;;;;;1.10;1.10;;;;;;;;;;5041774;28;20265;-66